createdAt,value
2022-12-17T00:01:41.787Z,1.00
2022-12-17T00:04:27.114Z,1.00
2022-12-17T00:07:12.792Z,1.00
2022-12-17T00:09:58.286Z,1.00
2022-12-17T00:12:43.730Z,1.00
2022-12-17T00:15:30.542Z,3.20
2022-12-17T00:18:21.553Z,5.30
2022-12-17T00:21:23.062Z,5.60
2022-12-17T00:24:08.639Z,6.40
2022-12-17T00:26:54.646Z,8.50
2022-12-17T00:29:41.819Z,10.10
2022-12-17T00:32:37.153Z,10.90
2022-12-17T00:35:23.144Z,8.90
2022-12-17T00:38:08.660Z,6.00
2022-12-17T00:40:54.018Z,2.20
2022-12-17T00:43:39.879Z,3.30
2022-12-17T00:46:22.180Z,1.80
2022-12-17T00:51:55.635Z,7.00
2022-12-17T00:54:41.934Z,7.10
2022-12-17T00:57:27.630Z,12.80
2022-12-17T01:00:12.968Z,14.20
2022-12-17T01:02:58.688Z,21.70
2022-12-17T01:05:46.332Z,22.60
2022-12-17T01:08:33.717Z,25.90
2022-12-17T01:14:06.422Z,25.60
2022-12-17T01:16:52.242Z,24.20
2022-12-17T01:19:38.214Z,23.10
2022-12-17T01:22:24.984Z,31.70
2022-12-17T01:25:10.276Z,37.90
2022-12-17T01:27:55.731Z,35.00
2022-12-17T01:30:41.729Z,35.90
2022-12-17T01:33:29.730Z,26.40
2022-12-17T01:36:15.913Z,25.50
2022-12-17T01:39:03.273Z,19.40
2022-12-17T01:41:49.241Z,17.40
2022-12-17T01:45:10.957Z,14.10
2022-12-17T01:56:22.052Z,12.70
2022-12-17T01:59:07.549Z,12.50
2022-12-17T02:01:54.488Z,13.60
2022-12-17T02:04:42.246Z,14.10
2022-12-17T02:10:34.646Z,12.30
2022-12-17T02:13:27.887Z,14.00
2022-12-17T02:16:17.540Z,12.90
2022-12-17T02:19:09.125Z,11.30
2022-12-17T02:21:58.080Z,9.30
2022-12-17T02:27:34.850Z,2.70
2022-12-17T02:30:25.119Z,1.00
2022-12-17T02:33:11.310Z,1.00
2022-12-17T02:36:01.549Z,1.00
2022-12-17T02:38:49.001Z,1.00
2022-12-17T02:41:36.939Z,1.00
2022-12-17T02:44:25.908Z,1.00
2022-12-17T02:47:12.826Z,1.00
2022-12-17T02:49:58.482Z,1.00
2022-12-17T02:52:44.689Z,1.00
2022-12-17T02:58:15.928Z,4.20
2022-12-17T03:01:02.732Z,3.40
2022-12-17T03:03:50.400Z,5.00
2022-12-17T03:06:36.544Z,7.00
2022-12-17T03:09:21.881Z,6.80
2022-12-17T03:12:07.463Z,8.20
2022-12-17T03:14:53.047Z,12.20
2022-12-17T03:17:39.694Z,16.90
2022-12-17T03:20:26.607Z,22.30
2022-12-17T03:23:11.998Z,29.60
2022-12-17T03:28:43.280Z,33.50
2022-12-17T03:31:28.825Z,42.30
2022-12-17T03:34:15.557Z,42.30
2022-12-17T03:37:01.002Z,42.50
2022-12-17T03:39:46.673Z,42.60
2022-12-17T03:42:32.160Z,43.30
2022-12-17T03:45:26.352Z,46.80
2022-12-17T03:48:22.551Z,55.70
2022-12-17T03:51:09.915Z,68.90
2022-12-17T03:53:55.281Z,73.80
2022-12-17T03:56:40.694Z,80.30
2022-12-17T03:59:26.468Z,84.30
2022-12-17T04:02:12.241Z,87.60
2022-12-17T04:07:45.304Z,78.50
2022-12-17T04:13:17.060Z,91.60
2022-12-17T04:16:02.583Z,91.80
2022-12-17T04:18:48.123Z,91.80
2022-12-17T04:21:33.651Z,92.30
2022-12-17T04:29:52.660Z,92.20
2022-12-17T04:32:38.101Z,92.10
2022-12-17T04:40:56.566Z,87.20
2022-12-17T04:43:42.012Z,91.70
2022-12-17T04:46:27.569Z,93.20
2022-12-17T04:49:13.024Z,93.90
2022-12-17T04:51:58.681Z,94.70
2022-12-17T04:54:44.404Z,95.60
2022-12-17T04:57:31.169Z,95.30
2022-12-17T05:00:16.852Z,94.60
2022-12-17T05:03:02.821Z,94.10
2022-12-17T05:08:39.663Z,93.90
2022-12-17T05:14:13.872Z,93.80
2022-12-17T05:16:59.574Z,92.50
2022-12-17T05:19:45.057Z,91.80
2022-12-17T05:25:16.521Z,91.80
2022-12-17T05:28:01.971Z,91.30
2022-12-17T05:42:06.818Z,90.40
2022-12-17T05:44:52.347Z,90.20
2022-12-17T05:47:50.959Z,92.80
2022-12-17T05:50:36.670Z,89.50
2022-12-17T05:53:38.338Z,90.30
2022-12-17T05:56:24.502Z,90.70
2022-12-17T05:59:10.214Z,88.20
2022-12-17T06:01:55.843Z,89.10
2022-12-17T06:04:42.564Z,88.50
2022-12-17T06:10:26.288Z,91.60
2022-12-17T06:13:15.148Z,91.50
2022-12-17T06:16:00.806Z,91.70
2022-12-17T06:18:46.367Z,92.10
2022-12-17T06:21:33.095Z,93.30
2022-12-17T06:24:18.877Z,93.90
2022-12-17T06:29:50.310Z,94.80
2022-12-17T06:32:36.100Z,91.80
2022-12-17T06:35:22.052Z,95.30
2022-12-17T06:38:16.775Z,94.70
2022-12-17T06:41:02.489Z,92.80
2022-12-17T06:43:47.934Z,93.20
2022-12-17T06:46:33.479Z,92.10
2022-12-17T06:49:19.008Z,92.90
2022-12-17T06:57:40.817Z,94.60
2022-12-17T07:00:29.730Z,94.80
2022-12-17T07:03:15.815Z,79.50
2022-12-17T07:06:01.945Z,89.90
2022-12-17T07:08:47.525Z,89.40
2022-12-17T07:11:34.525Z,87.70
2022-12-17T07:14:19.994Z,88.30
2022-12-17T07:17:14.119Z,74.10
2022-12-17T07:20:01.906Z,91.40
2022-12-17T07:22:47.624Z,92.70
2022-12-17T07:25:46.366Z,92.00
2022-12-17T07:28:33.365Z,92.00
2022-12-17T07:34:16.583Z,93.50
2022-12-17T07:37:02.059Z,93.20
2022-12-17T07:39:47.678Z,93.40
2022-12-17T07:45:20.210Z,93.40
2022-12-17T07:50:55.227Z,94.10
2022-12-17T07:59:20.667Z,98.20
2022-12-17T08:02:07.808Z,97.70
2022-12-17T08:04:53.310Z,96.40
2022-12-17T08:07:38.969Z,97.00
2022-12-17T08:10:25.500Z,98.70
2022-12-17T08:13:14.538Z,99.90
2022-12-17T08:16:00.775Z,99.90
2022-12-17T08:18:44.186Z,99.90
2022-12-17T08:21:26.250Z,97.00
2022-12-17T08:24:17.010Z,99.90
2022-12-17T08:29:48.302Z,98.90
2022-12-17T08:35:21.190Z,97.20
2022-12-17T08:38:06.999Z,97.90
2022-12-17T08:43:39.353Z,96.90
2022-12-17T08:46:25.407Z,95.20
2022-12-17T08:49:10.810Z,92.80
2022-12-17T08:57:32.224Z,92.70
2022-12-17T09:00:18.725Z,92.30
2022-12-17T09:03:04.418Z,91.30
2022-12-17T09:08:37.495Z,79.00
2022-12-17T09:11:23.281Z,84.10
2022-12-17T09:19:40.079Z,88.70
2022-12-17T09:22:25.517Z,93.40
2022-12-17T09:25:17.665Z,91.30
2022-12-17T09:28:03.476Z,94.30
2022-12-17T09:30:54.577Z,95.80
2022-12-17T09:36:27.503Z,89.80
2022-12-17T09:39:13.190Z,79.30
2022-12-17T09:42:06.292Z,70.30
2022-12-17T09:44:57.865Z,64.80
2022-12-17T09:50:34.229Z,74.10
2022-12-17T09:58:58.371Z,62.10
2022-12-17T10:04:35.785Z,51.90
2022-12-17T10:07:21.584Z,44.60
2022-12-17T10:10:08.939Z,44.50
2022-12-17T10:12:54.954Z,44.30
2022-12-17T10:15:42.229Z,44.30
2022-12-17T10:18:31.141Z,44.30
2022-12-17T10:21:18.213Z,46.00
2022-12-17T10:24:03.994Z,44.40
2022-12-17T10:26:51.213Z,44.80
2022-12-17T10:29:42.561Z,44.90
2022-12-17T10:32:40.926Z,45.40
2022-12-17T10:35:28.000Z,45.20
2022-12-17T10:38:13.747Z,45.30
2022-12-17T10:41:13.942Z,46.00
2022-12-17T10:44:00.290Z,46.60
2022-12-17T10:46:47.507Z,12.60
2022-12-17T10:49:37.336Z,1.00
2022-12-17T10:52:25.324Z,1.00
2022-12-17T10:55:20.389Z,1.00
2022-12-17T11:00:55.357Z,1.00
2022-12-17T11:03:47.353Z,1.00
2022-12-17T11:12:31.047Z,1.00
2022-12-17T11:15:21.372Z,1.00
2022-12-17T11:18:11.395Z,1.00
2022-12-17T11:23:54.857Z,1.00
2022-12-17T11:26:43.605Z,1.00
2022-12-17T11:29:31.143Z,1.00
2022-12-17T11:32:32.449Z,1.00
2022-12-17T11:43:52.461Z,1.00
2022-12-17T11:46:45.844Z,1.00
2022-12-17T11:52:27.665Z,1.00
2022-12-17T11:58:11.239Z,1.00
2022-12-17T12:01:03.506Z,1.00
2022-12-17T12:09:36.017Z,1.00
2022-12-17T12:12:26.903Z,1.00
2022-12-17T12:18:11.733Z,1.00
2022-12-17T12:21:23.482Z,1.00
2022-12-17T12:29:56.625Z,1.00
2022-12-17T12:32:49.791Z,1.00
2022-12-17T12:38:24.491Z,1.00
2022-12-17T12:41:14.425Z,1.00
2022-12-17T12:44:04.018Z,1.00
2022-12-17T13:01:14.811Z,1.00
2022-12-17T13:04:10.753Z,1.00
2022-12-17T13:09:34.879Z,1.00
2022-12-17T13:12:42.318Z,1.00
2022-12-17T13:15:20.823Z,1.00
2022-12-17T13:23:18.336Z,1.00
2022-12-17T13:25:46.429Z,1.00
2022-12-17T13:28:27.757Z,1.00
2022-12-17T13:31:03.253Z,1.00
2022-12-17T13:36:13.356Z,1.00
2022-12-17T13:41:17.218Z,1.00
2022-12-17T13:53:57.477Z,1.00
2022-12-17T13:58:59.266Z,1.00
2022-12-17T14:01:30.527Z,1.00
2022-12-17T14:04:07.711Z,1.00
2022-12-17T14:14:32.910Z,1.00
2022-12-17T14:17:01.401Z,1.00
2022-12-17T14:19:30.600Z,1.00
2022-12-17T14:24:29.990Z,1.00
2022-12-17T14:32:00.194Z,1.00
2022-12-17T14:34:29.940Z,1.00
2022-12-17T14:36:59.605Z,1.00
2022-12-17T14:39:31.214Z,1.00
2022-12-17T14:42:29.527Z,1.00
2022-12-17T14:44:59.651Z,1.00
2022-12-17T14:50:04.402Z,1.00
2022-12-17T14:55:31.729Z,1.00
2022-12-17T14:58:24.140Z,1.00
2022-12-17T15:08:22.886Z,1.00
2022-12-17T15:10:52.369Z,1.00
2022-12-17T15:20:47.689Z,1.00
2022-12-17T15:25:47.200Z,1.00
2022-12-17T15:30:46.807Z,1.00
2022-12-17T15:33:15.266Z,1.00
2022-12-17T15:40:41.248Z,1.00
2022-12-17T15:43:12.692Z,1.00
2022-12-17T15:45:45.377Z,1.00
2022-12-17T15:50:43.125Z,1.00
2022-12-17T15:53:11.441Z,1.00
2022-12-17T15:55:40.207Z,1.00
2022-12-17T16:00:37.334Z,1.00
2022-12-17T16:05:35.397Z,1.00
2022-12-17T16:10:31.962Z,1.00
2022-12-17T16:12:59.997Z,1.00
2022-12-17T16:15:28.172Z,1.00
2022-12-17T16:20:26.159Z,1.00
2022-12-17T16:35:16.682Z,1.00
2022-12-17T16:40:14.460Z,1.00
2022-12-17T16:47:39.825Z,1.00
2022-12-17T16:55:06.979Z,1.00
2022-12-17T16:57:35.045Z,1.00
2022-12-17T17:00:04.442Z,1.00
2022-12-17T17:02:32.689Z,1.00
2022-12-17T17:05:00.932Z,1.00
2022-12-17T17:12:27.517Z,1.00
2022-12-17T17:14:55.650Z,1.00
2022-12-17T17:17:55.392Z,1.00
2022-12-17T17:22:41.583Z,1.00
2022-12-17T17:25:09.887Z,1.00
2022-12-17T17:27:39.321Z,1.00
2022-12-17T17:30:08.455Z,1.00
2022-12-17T17:32:36.535Z,1.00
2022-12-17T17:37:33.664Z,1.00
2022-12-17T17:42:30.128Z,1.00
2022-12-17T17:44:59.493Z,1.00
2022-12-17T17:47:30.043Z,1.00
2022-12-17T17:49:58.052Z,1.00
2022-12-17T17:52:26.178Z,1.00
2022-12-17T17:54:54.237Z,1.00
2022-12-17T17:57:22.317Z,1.00
2022-12-17T18:02:21.354Z,1.00
2022-12-17T18:07:26.359Z,1.00
2022-12-17T18:15:18.771Z,1.00
2022-12-17T18:17:52.000Z,1.00
2022-12-17T18:20:20.464Z,1.00
2022-12-17T18:25:18.866Z,1.00
2022-12-17T18:32:44.383Z,1.00
2022-12-17T18:35:13.842Z,1.00
2022-12-17T18:40:11.327Z,1.00
2022-12-17T18:45:25.107Z,1.00
2022-12-17T18:50:22.943Z,1.00
2022-12-17T18:55:19.592Z,1.00
2022-12-17T18:57:47.652Z,1.00
2022-12-17T19:00:16.065Z,1.00
2022-12-17T19:07:43.385Z,1.00
2022-12-17T19:10:11.777Z,1.00
2022-12-17T19:12:39.850Z,1.00
2022-12-17T19:15:09.063Z,1.00
2022-12-17T19:20:06.158Z,1.00
2022-12-17T19:22:34.245Z,1.00
2022-12-17T19:27:32.999Z,1.00
2022-12-17T19:30:01.084Z,1.00
2022-12-17T19:32:29.153Z,1.00
2022-12-17T19:34:57.252Z,1.00
2022-12-17T19:39:53.655Z,1.00
2022-12-17T19:42:25.706Z,1.00
2022-12-17T19:44:54.980Z,1.00
2022-12-17T19:47:23.866Z,1.00
2022-12-17T19:49:52.094Z,1.00
2022-12-17T19:52:20.401Z,1.00
2022-12-17T19:57:18.177Z,1.00
2022-12-17T19:59:47.649Z,1.00
2022-12-17T20:04:45.347Z,1.00
2022-12-17T20:12:12.759Z,1.00
2022-12-17T20:17:10.762Z,1.00
2022-12-17T20:19:38.858Z,1.00
2022-12-17T20:24:37.169Z,1.00
2022-12-17T20:27:05.808Z,1.00
2022-12-17T20:29:33.884Z,1.00
2022-12-17T20:32:01.975Z,1.00
2022-12-17T20:34:31.801Z,1.00
2022-12-17T20:36:59.911Z,1.00
2022-12-17T20:41:57.466Z,1.00
2022-12-17T20:44:25.564Z,1.00
2022-12-17T20:46:53.676Z,1.00
2022-12-17T20:51:51.559Z,1.00
2022-12-17T20:54:19.816Z,1.00
2022-12-17T20:56:47.905Z,1.00
2022-12-17T21:01:49.028Z,1.00
2022-12-17T21:04:19.626Z,1.00
2022-12-17T21:06:49.191Z,1.00
2022-12-17T21:11:48.984Z,1.00
2022-12-17T21:14:18.404Z,1.00
2022-12-17T21:16:47.140Z,1.00
2022-12-17T21:19:17.809Z,1.00
2022-12-17T21:26:45.383Z,1.00
2022-12-17T21:36:43.059Z,1.00
2022-12-17T21:39:13.191Z,1.00
2022-12-17T21:41:44.489Z,1.00
2022-12-17T21:44:15.420Z,1.00
2022-12-17T21:46:50.268Z,1.00
2022-12-17T21:49:19.102Z,1.00
2022-12-17T21:51:47.433Z,1.00
2022-12-17T21:54:19.683Z,1.00
2022-12-17T21:56:48.878Z,1.00
2022-12-17T21:59:18.316Z,1.00
2022-12-17T22:01:46.547Z,1.00
2022-12-17T22:04:14.791Z,1.00
2022-12-17T22:06:52.373Z,1.00
2022-12-17T22:09:55.692Z,1.00
2022-12-17T22:14:59.959Z,1.00
2022-12-17T22:17:28.504Z,1.00
2022-12-17T22:19:56.618Z,1.00
2022-12-17T22:22:24.777Z,1.00
2022-12-17T22:24:52.804Z,1.00
2022-12-17T22:27:20.938Z,1.00
2022-12-17T22:30:02.866Z,1.00
2022-12-17T22:35:18.198Z,1.00
2022-12-17T22:44:31.720Z,1.00
2022-12-17T22:44:42.608Z,1.00
2022-12-17T22:46:23.526Z,1.00
2022-12-17T22:48:53.000Z,1.00
2022-12-17T22:51:26.089Z,1.00
2022-12-17T22:54:02.021Z,1.00
2022-12-17T22:56:47.017Z,1.00
2022-12-17T22:59:19.842Z,1.00
2022-12-17T23:01:48.026Z,1.00
2022-12-17T23:04:17.907Z,1.00
2022-12-17T23:06:47.095Z,1.00
2022-12-17T23:09:18.202Z,1.00
2022-12-17T23:11:46.982Z,1.00
2022-12-17T23:14:15.722Z,1.00
2022-12-17T23:19:12.569Z,1.00
2022-12-17T23:21:42.149Z,1.00
2022-12-17T23:24:10.534Z,1.00
2022-12-17T23:26:39.840Z,1.00
2022-12-17T23:29:13.614Z,6.70
2022-12-17T23:31:44.218Z,9.30
2022-12-17T23:34:12.390Z,9.30
2022-12-17T23:36:41.843Z,12.70
2022-12-17T23:41:38.361Z,1.00
2022-12-17T23:44:06.436Z,1.00
2022-12-17T23:46:34.655Z,6.50
2022-12-17T23:49:05.311Z,10.80
2022-12-17T23:51:33.859Z,13.80
2022-12-17T23:54:03.354Z,14.50
2022-12-17T23:56:31.507Z,16.00
2022-12-17T23:59:01.535Z,12.30
